Huvudsida
METAR-TAF:

METAR-TAF

Flygplatser :

Russian Mission, Alaska, USA

latitud: 61-46-30N, longitud: 161-19-10W, höjd: 16 m

Aktuellt väderrapport

Denna rapport gjordes för 42 minuter sedan, klockan 23:56 UTC
Vind 4 kt från syd/sydost
Temperatur 25°C
Fuktighet 32%
Tryck 1011 hPa
Sikt: 16.1 km
Klar himmel

METAR: PARS 172356Z AUTO 16004KT 10SM CLR 25/07 A2986 RMK AO2 SLP115 T02500067 10250 20189 58018 $

Tid: 16:38 (00:38 UTC)


TAF: saknas

Aktuella väderrapporter och prognoser från 4000 flygplatser (METAR- och TAF-rapporter).

De tillgängliga stationerna syns som gula och röda prickar på kartan.

För musen över prickarna för att se namnen på stationerna.

Klicka sedan för att få väderrapporter och prognoser.

För att ändra kartan: Klicka på de gröna knapparna med ett svart kors på för att zooma in; den gröna knappen med ett streck på för att zooma ut; eller på de gröna pilarna för angränsande kartor.


METAR-TAF: